Time;durP1;ratioP1;P1;durP2;ratioP2;P2;SDS_P1;SDS_P2;PMS_P1;PMS_P2;Temp;Humidity;BMP_temperature;BMP_pressure;BME280_temperature;BME280_humidity;BME280_pressure;Samples;Min_cycle;Max_cycle;Signal;HPM_P1;HPM_P2
2023/10/01 00:00:11;;;;;;;4.27;3.37;;;;;;;16.02;73.54;101637.94;5069063;28;20244;-82
2023/10/01 00:02:41;;;;;;;3.50;2.63;;;;;;;16.04;75.54;101613.28;5070375;28;20700;-80
2023/10/01 00:05:08;;;;;;;4.90;2.30;;;;;;;16.07;75.79;101588.63;5069763;28;20212;-81
2023/10/01 00:07:37;;;;;;;3.67;2.40;;;;;;;16.05;76.69;101564.97;5068746;28;20201;-81
2023/10/01 00:10:10;;;;;;;4.37;2.57;;;;;;;16.06;76.52;101548.25;5068999;28;20231;-81
2023/10/01 00:12:37;;;;;;;3.83;2.50;;;;;;;16.06;77.10;101529.81;5060066;28;20198;-82
2023/10/01 00:15:05;;;;;;;8.23;2.93;;;;;;;16.07;76.21;101544.75;5067913;28;20213;-81
2023/10/01 00:17:33;;;;;;;3.83;2.37;;;;;;;16.05;76.63;101550.94;5069897;28;20236;-83
2023/10/01 00:20:00;;;;;;;6.60;2.67;;;;;;;16.03;77.17;101527.25;5057927;28;20234;-84
2023/10/01 00:22:27;;;;;;;3.30;2.03;;;;;;;16.05;77.34;101514.06;5052446;28;20593;-82
2023/10/01 00:24:53;;;;;;;3.87;2.53;;;;;;;16.00;77.22;101516.81;5048865;28;20242;-83
2023/10/01 00:27:20;;;;;;;3.67;2.80;;;;;;;16.03;77.70;101503.53;5051427;28;20278;-79
2023/10/01 00:29:46;;;;;;;3.57;2.33;;;;;;;16.01;78.25;101481.66;5049282;28;20252;-82
2023/10/01 00:32:13;;;;;;;3.07;2.50;;;;;;;15.97;76.49;101508.97;5049692;28;20237;-81
2023/10/01 00:34:40;;;;;;;3.77;2.50;;;;;;;15.98;76.21;101531.78;5048576;28;20220;-82
2023/10/01 00:37:07;;;;;;;5.50;2.80;;;;;;;16.01;76.95;101530.84;5049972;28;20206;-81
2023/10/01 00:39:34;;;;;;;2.93;2.70;;;;;;;15.99;77.33;101516.84;5049347;28;20233;-81
2023/10/01 00:42:01;;;;;;;4.27;2.60;;;;;;;15.97;78.04;101510.75;5049837;28;20585;-81
2023/10/01 00:44:27;;;;;;;5.20;2.83;;;;;;;16.00;76.72;101518.59;5060332;28;20212;-81
2023/10/01 00:46:54;;;;;;;3.47;2.20;;;;;;;15.99;77.08;101524.75;5069671;28;20206;-81
2023/10/01 00:49:22;;;;;;;2.77;2.17;;;;;;;15.96;77.09;101516.94;5068724;28;20232;-82
2023/10/01 00:51:51;;;;;;;2.97;2.40;;;;;;;15.97;75.91;101540.56;5062072;28;20200;-81
2023/10/01 00:54:17;;;;;;;3.80;2.80;;;;;;;15.95;76.84;101526.56;5070133;28;20201;-82
2023/10/01 00:56:44;;;;;;;3.00;2.40;;;;;;;15.79;74.91;101551.53;5070896;28;20257;-82
2023/10/01 00:59:12;;;;;;;4.13;2.63;;;;;;;15.86;75.88;101563.69;5070583;28;20577;-81
2023/10/01 01:01:41;;;;;;;3.07;2.43;;;;;;;15.92;77.16;101531.94;5068826;28;20222;-81
2023/10/01 01:04:17;;;;;;;3.00;2.70;;;;;;;15.96;76.66;101538.00;5069480;28;20213;-81
2023/10/01 01:06:47;;;;;;;3.73;2.77;;;;;;;15.99;76.75;101525.59;5070684;28;20264;-81
2023/10/01 01:09:15;;;;;;;4.70;2.60;;;;;;;15.98;77.54;101494.91;5070292;28;20209;-82
2023/10/01 01:11:42;;;;;;;4.10;2.60;;;;;;;15.99;77.16;101490.50;5070029;28;20201;-82
2023/10/01 01:14:08;;;;;;;3.47;2.37;;;;;;;15.98;77.16;101497.53;5076692;28;20212;-82
2023/10/01 01:16:35;;;;;;;3.23;2.30;;;;;;;15.92;78.36;101470.50;5054136;28;20210;-82
2023/10/01 01:19:01;;;;;;;3.60;2.63;;;;;;;15.87;77.93;101475.88;5049815;28;20236;-83
2023/10/01 01:21:28;;;;;;;4.50;2.83;;;;;;;15.88;77.62;101465.31;5050349;28;20226;-81
2023/10/01 01:23:57;;;;;;;2.57;2.37;;;;;;;15.92;77.66;101470.50;5051483;28;20611;-83
2023/10/01 01:26:25;;;;;;;3.43;2.67;;;;;;;15.93;78.12;101472.22;5050294;28;20236;-82
2023/10/01 01:28:52;;;;;;;4.00;2.87;;;;;;;15.86;78.99;101461.84;5051850;28;20642;-82
2023/10/01 01:31:19;;;;;;;2.90;2.60;;;;;;;15.88;77.87;101452.13;5051719;28;20246;-82
2023/10/01 01:33:52;;;;;;;3.30;2.20;;;;;;;15.92;76.60;101470.50;5062794;28;20212;-83
2023/10/01 01:36:20;;;;;;;4.80;2.63;;;;;;;15.93;77.60;101462.53;5074418;28;20193;-81
2023/10/01 01:39:09;;;;;;;5.00;2.43;;;;;;;15.97;76.88;101498.44;5077184;28;20200;-81
2023/10/01 01:41:42;;;;;;;3.60;2.30;;;;;;;15.89;75.56;101537.25;5075507;28;20217;-80
2023/10/01 01:44:10;;;;;;;4.80;2.70;;;;;;;15.92;76.67;101521.41;5076552;28;20208;-80
2023/10/01 01:46:47;;;;;;;4.13;2.70;;;;;;;15.93;76.56;101517.84;5076362;28;20189;-80
2023/10/01 01:49:15;;;;;;;4.10;2.53;;;;;;;15.95;77.10;101512.56;5070446;28;20209;-82
2023/10/01 01:51:56;;;;;;;3.07;2.20;;;;;;;15.97;78.07;101490.53;5069397;28;20265;-80
2023/10/01 01:54:26;;;;;;;2.90;2.60;;;;;;;15.93;78.67;101465.19;5069238;28;20209;-81
2023/10/01 01:56:52;;;;;;;4.10;2.70;;;;;;;15.95;78.46;101460.75;5060672;28;20209;-80
2023/10/01 01:59:21;;;;;;;4.63;2.40;;;;;;;15.96;77.89;101466.91;5069351;28;20243;-81
2023/10/01 02:01:49;;;;;;;4.00;2.70;;;;;;;15.93;78.09;101461.69;5069312;28;20609;-80
2023/10/01 02:04:15;;;;;;;5.63;2.70;;;;;;;15.92;78.21;101445.03;5068314;28;20281;-82
2023/10/01 02:06:42;;;;;;;4.50;2.73;;;;;;;15.89;78.59;101442.47;5069597;28;20224;-83
2023/10/01 02:09:12;;;;;;;3.17;2.30;;;;;;;15.87;77.88;101442.50;5069568;28;20205;-82
2023/10/01 02:11:40;;;;;;;4.27;3.00;;;;;;;15.86;76.10;101482.91;5059949;28;20213;-82
2023/10/01 02:14:07;;;;;;;4.23;2.80;;;;;;;15.82;76.28;101494.41;5055894;28;20189;-82
2023/10/01 02:16:38;;;;;;;2.90;2.47;;;;;;;15.88;75.88;101504.81;5069792;28;20201;-83
2023/10/01 02:19:14;;;;;;;3.73;2.40;;;;;;;15.87;76.48;101502.19;5069332;28;20664;-82
2023/10/01 02:21:49;;;;;;;2.77;2.57;;;;;;;15.87;76.63;101499.56;5070339;28;20248;-81
2023/10/01 02:24:19;;;;;;;4.60;2.60;;;;;;;15.75;74.72;101523.56;5069516;28;20208;-82
2023/10/01 02:26:48;;;;;;;3.97;2.47;;;;;;;15.82;75.55;101520.75;5069935;28;20645;-82
2023/10/01 02:29:16;;;;;;;2.47;2.20;;;;;;;15.83;76.61;101498.75;5069968;28;20339;-83
2023/10/01 02:31:47;;;;;;;2.63;2.07;;;;;;;15.85;75.94;101496.09;5071095;28;20232;-82
2023/10/01 02:34:14;;;;;;;3.73;2.70;;;;;;;15.88;76.41;101496.03;5070554;28;20202;-80
2023/10/01 02:36:42;;;;;;;3.27;2.60;;;;;;;15.92;75.58;101502.09;5071758;28;20212;-80
2023/10/01 02:39:19;;;;;;;3.40;2.57;;;;;;;15.91;75.32;101518.78;5062547;28;20197;-80
2023/10/01 02:42:03;;;;;;;4.33;2.80;;;;;;;15.84;74.35;101524.22;5056506;28;20228;-80
2023/10/01 02:44:31;;;;;;;5.43;2.50;;;;;;;15.88;74.08;101557.47;5066802;28;20337;-81
2023/10/01 02:46:58;;;;;;;2.97;2.57;;;;;;;15.93;74.20;101554.72;5076643;28;20193;-81
2023/10/01 02:49:24;;;;;;;3.30;2.67;;;;;;;15.95;73.85;101552.91;5075450;28;20213;-80
2023/10/01 02:51:50;;;;;;;2.60;2.37;;;;;;;15.93;75.33;101543.31;5075566;28;20886;-81
2023/10/01 02:54:18;;;;;;;8.27;2.80;;;;;;;15.90;72.70;101560.06;5073907;28;20206;-82
2023/10/01 02:56:52;;;;;;;2.90;2.53;;;;;;;15.95;73.56;101581.03;5069133;28;20229;-82
2023/10/01 02:59:20;;;;;;;4.17;2.90;;;;;;;15.94;73.55;101580.16;5068906;28;20749;-81
2023/10/01 03:01:46;;;;;;;5.50;3.10;;;;;;;15.95;73.81;101571.34;5070165;28;20226;-82
2023/10/01 03:04:15;;;;;;;4.70;2.87;;;;;;;15.96;73.03;101585.41;5069909;28;20213;-80
2023/10/01 03:06:46;;;;;;;3.37;2.53;;;;;;;15.97;74.49;101563.41;5070866;28;20212;-82
2023/10/01 03:09:22;;;;;;;2.97;2.70;;;;;;;15.94;74.53;101542.44;5070109;28;20209;-81
2023/10/01 03:11:53;;;;;;;3.10;2.47;;;;;;;15.91;75.26;101531.97;5069853;28;20224;-81
2023/10/01 03:14:26;;;;;;;4.33;2.70;;;;;;;15.83;74.42;101513.72;5057407;28;20213;-82
2023/10/01 03:16:53;;;;;;;2.93;2.63;;;;;;;15.84;75.33;101512.81;5048992;28;20207;-81
2023/10/01 03:19:25;;;;;;;4.40;2.70;;;;;;;15.81;75.11;101507.59;5048936;28;20231;-83
2023/10/01 03:24:42;;;;;;;4.77;2.47;;;;;;;15.75;75.98;101499.88;5057575;28;20216;-82
2023/10/01 03:27:19;;;;;;;3.53;2.77;;;;;;;15.74;75.69;101495.47;5069694;28;20229;-83
2023/10/01 03:29:49;;;;;;;3.10;2.70;;;;;;;15.70;75.36;101499.94;5068745;28;20229;-81
2023/10/01 03:32:28;;;;;;;3.10;2.70;;;;;;;15.70;75.02;101513.09;5068483;28;20209;-83
2023/10/01 03:34:55;;;;;;;4.00;2.70;;;;;;;15.70;76.06;101502.56;5067209;28;20680;-81
2023/10/01 03:37:27;;;;;;;3.40;3.10;;;;;;;15.70;75.94;101494.69;5067630;28;20213;-83
2023/10/01 03:40:03;;;;;;;3.27;2.70;;;;;;;15.73;76.16;101486.72;5067574;28;20316;-83
2023/10/01 03:42:33;;;;;;;3.60;2.80;;;;;;;15.71;76.37;101480.59;5068746;28;20221;-83
2023/10/01 03:45:19;;;;;;;3.37;2.70;;;;;;;15.69;76.07;101477.13;5062748;28;20213;-82
2023/10/01 03:47:50;;;;;;;2.73;2.37;;;;;;;15.66;76.45;101483.34;5067577;28;20213;-81
2023/10/01 03:50:20;;;;;;;3.70;2.53;;;;;;;15.62;76.56;101473.78;5067530;28;20609;-81
2023/10/01 03:52:52;;;;;;;4.47;3.00;;;;;;;15.67;76.00;101479.81;5068474;28;20292;-83
2023/10/01 03:55:27;;;;;;;3.30;3.00;;;;;;;15.67;75.64;101490.34;5068261;28;20236;-80
2023/10/01 03:58:05;;;;;;;2.90;2.40;;;;;;;15.67;75.25;101500.84;5065510;28;20212;-80
2023/10/01 04:00:40;;;;;;;4.10;3.70;;;;;;;15.67;75.18;101513.16;5064751;28;20283;-80
2023/10/01 04:03:07;;;;;;;4.70;3.40;;;;;;;15.67;75.98;101507.91;5068025;28;20732;-83
2023/10/01 04:05:34;;;;;;;3.23;2.60;;;;;;;15.71;76.04;101500.81;5065954;28;20210;-82
2023/10/01 04:08:07;;;;;;;3.63;3.03;;;;;;;15.69;76.23;101483.25;5072321;28;20200;-80
2023/10/01 04:10:34;;;;;;;3.97;2.40;;;;;;;15.68;77.01;101464.91;5072220;28;20712;-80
2023/10/01 04:13:12;;;;;;;3.40;2.90;;;;;;;15.62;76.51;101472.94;5067838;28;20202;-82
2023/10/01 04:15:43;;;;;;;3.70;3.40;;;;;;;15.65;77.64;101452.66;5064399;28;20208;-81
2023/10/01 04:18:19;;;;;;;3.50;3.17;;;;;;;15.61;77.43;101444.88;5067491;28;20699;-80
2023/10/01 04:20:48;;;;;;;2.80;2.60;;;;;;;15.65;76.94;101446.53;5071821;28;20288;-83
2023/10/01 04:23:23;;;;;;;4.43;2.83;;;;;;;15.64;76.68;101452.72;5072561;28;20288;-82
2023/10/01 04:25:51;;;;;;;3.63;2.83;;;;;;;15.59;77.01;101449.31;5071947;28;20243;-81
2023/10/01 04:28:18;;;;;;;4.50;3.30;;;;;;;15.60;75.20;101477.34;5072464;28;20212;-82
2023/10/01 04:30:51;;;;;;;5.03;3.40;;;;;;;15.59;76.50;101468.59;5067977;28;20229;-82
2023/10/01 04:33:17;;;;;;;3.80;3.40;;;;;;;15.61;76.41;101465.94;5068832;28;20278;-81
2023/10/01 04:35:51;;;;;;;3.83;3.07;;;;;;;15.64;75.91;101468.50;5069688;28;20217;-83
2023/10/01 04:38:19;;;;;;;2.83;2.53;;;;;;;15.65;75.26;101491.28;5068935;28;20204;-81
2023/10/01 04:40:46;;;;;;;3.10;2.80;;;;;;;15.64;75.58;101487.78;5067138;28;20228;-82
2023/10/01 04:43:16;;;;;;;3.83;3.00;;;;;;;15.65;76.21;101470.22;5063913;28;20230;-83
2023/10/01 04:45:44;;;;;;;9.50;3.27;;;;;;;15.64;76.02;101466.72;5069701;28;20236;-83
2023/10/01 04:48:16;;;;;;;3.60;2.70;;;;;;;15.61;76.55;101458.91;5067925;28;20209;-81
2023/10/01 04:50:43;;;;;;;3.07;2.70;;;;;;;15.62;76.13;101465.03;5067980;28;20233;-81
2023/10/01 04:53:13;;;;;;;3.23;2.77;;;;;;;15.60;76.35;101464.19;5067889;28;20214;-82
2023/10/01 04:55:41;;;;;;;4.07;3.57;;;;;;;15.59;75.41;101471.22;5067651;28;20230;-81
2023/10/01 04:58:08;;;;;;;3.77;2.90;;;;;;;15.60;74.40;101501.03;5069048;28;20196;-83
2023/10/01 05:00:34;;;;;;;4.40;2.97;;;;;;;15.58;74.35;101516.88;5052699;28;20229;-82
2023/10/01 05:03:03;;;;;;;4.33;3.23;;;;;;;15.58;74.75;101513.34;5047679;28;20272;-82
2023/10/01 05:05:31;;;;;;;4.57;2.97;;;;;;;15.53;74.44;101528.41;5046371;28;20209;-81
2023/10/01 05:07:58;;;;;;;3.83;3.10;;;;;;;15.54;75.12;101515.22;5047986;28;20269;-82
2023/10/01 05:10:26;;;;;;;4.17;2.97;;;;;;;15.53;74.56;101521.38;5048198;28;20263;-80
2023/10/01 05:12:58;;;;;;;3.80;2.77;;;;;;;15.54;74.73;101522.22;5046977;28;20309;-81
2023/10/01 05:15:26;;;;;;;2.97;2.70;;;;;;;15.49;74.61;101514.44;5065089;28;20201;-82
2023/10/01 05:17:55;;;;;;;4.20;3.20;;;;;;;15.47;74.90;101514.47;5068455;28;20663;-82
2023/10/01 05:20:22;;;;;;;2.90;2.60;;;;;;;15.46;74.75;101517.13;5069380;28;20286;-83
2023/10/01 05:22:51;;;;;;;3.90;3.00;;;;;;;15.38;74.79;101521.69;5066403;28;20775;-81
2023/10/01 05:25:18;;;;;;;4.17;3.27;;;;;;;15.40;75.03;101520.78;5068726;28;20208;-82
2023/10/01 05:27:45;;;;;;;8.60;3.33;;;;;;;15.48;75.48;101496.94;5067864;28;20817;-82
2023/10/01 05:32:53;;;;;;;2.43;2.23;;;;;;;15.51;74.66;101517.03;5067461;28;20197;-84
2023/10/01 05:35:22;;;;;;;4.60;3.73;;;;;;;15.49;74.89;101515.31;5068234;28;20201;-84
2023/10/01 05:37:49;;;;;;;3.30;2.77;;;;;;;15.52;74.63;101513.50;5050852;28;20209;-84
2023/10/01 05:40:16;;;;;;;4.00;3.13;;;;;;;15.35;76.23;101511.25;5047944;28;20235;-83
2023/10/01 05:42:44;;;;;;;5.20;3.67;;;;;;;15.49;75.40;101496.88;5048081;28;20552;-82
2023/10/01 05:45:18;;;;;;;3.23;2.83;;;;;;;15.44;74.51;101509.28;5063902;28;20232;-83
2023/10/01 05:47:51;;;;;;;4.80;3.17;;;;;;;15.41;74.75;101530.41;5067383;28;20265;-83
2023/10/01 05:50:18;;;;;;;3.27;2.93;;;;;;;15.47;75.08;101516.25;5046867;28;20226;-81
2023/10/01 05:52:45;;;;;;;3.97;3.60;;;;;;;15.53;74.67;101508.22;5051816;28;20231;-83
2023/10/01 05:55:15;;;;;;;4.20;3.43;;;;;;;15.60;74.38;101522.97;5059255;28;20236;-83
2023/10/01 05:57:42;;;;;;;3.27;2.63;;;;;;;15.64;74.93;101527.28;5064396;28;20292;-83
2023/10/01 06:00:17;;;;;;;5.00;3.70;;;;;;;15.73;74.47;101530.63;5059360;28;20229;-83
2023/10/01 06:02:47;;;;;;;4.67;3.63;;;;;;;15.60;74.02;101549.28;5059179;28;20243;-83
2023/10/01 06:05:25;;;;;;;4.13;3.07;;;;;;;15.61;75.58;101518.56;5055564;28;20652;-82
2023/10/01 06:07:53;;;;;;;3.17;2.87;;;;;;;15.63;74.57;101522.88;5056883;28;20204;-82
2023/10/01 06:10:26;;;;;;;4.30;2.90;;;;;;;15.68;75.02;101517.53;5056980;28;20646;-81
2023/10/01 06:12:56;;;;;;;3.80;3.40;;;;;;;15.62;74.45;101521.19;5055222;28;20205;-83
2023/10/01 06:15:25;;;;;;;3.73;3.43;;;;;;;15.72;74.56;101528.84;5060150;28;20201;-82
2023/10/01 06:17:51;;;;;;;4.77;3.70;;;;;;;15.83;75.11;101518.97;5062950;28;20292;-82
2023/10/01 06:20:26;;;;;;;4.27;3.50;;;;;;;15.94;75.05;101524.84;5061656;28;20221;-80
2023/10/01 06:22:53;;;;;;;7.63;3.30;;;;;;;15.98;75.44;101510.72;5060845;28;20320;-82
2023/10/01 06:25:37;;;;;;;3.70;3.10;;;;;;;16.02;75.60;101503.59;5064346;28;20201;-82
2023/10/01 06:28:09;;;;;;;3.13;2.83;;;;;;;15.97;75.89;101493.16;5065790;28;20211;-82
2023/10/01 06:30:39;;;;;;;4.93;3.57;;;;;;;15.96;75.60;101496.72;5067369;28;20263;-82
2023/10/01 06:33:08;;;;;;;4.80;3.50;;;;;;;15.96;75.12;101509.03;5064426;28;20201;-81
2023/10/01 06:35:35;;;;;;;7.33;3.80;;;;;;;15.99;75.35;101495.78;5050683;28;20206;-81
2023/10/01 06:38:01;;;;;;;5.20;3.20;;;;;;;16.06;74.51;101492.09;5045641;28;20624;-81
2023/10/01 06:40:31;;;;;;;4.10;3.53;;;;;;;16.02;73.58;101522.03;5045764;28;20648;-81
2023/10/01 06:42:58;;;;;;;3.83;3.40;;;;;;;16.03;74.04;101527.25;5045630;28;20229;-79
2023/10/01 06:45:39;;;;;;;4.37;3.00;;;;;;;16.03;74.15;101532.53;5066666;28;20212;-81
2023/10/01 06:48:08;;;;;;;4.27;3.20;;;;;;;16.01;74.53;101522.94;5045960;28;20214;-82
2023/10/01 06:50:36;;;;;;;6.00;3.77;;;;;;;15.92;74.53;101515.28;5045985;28;20229;-82
2023/10/01 06:53:03;;;;;;;4.27;3.27;;;;;;;15.91;75.46;101495.94;5047701;28;20256;-83
2023/10/01 06:55:32;;;;;;;3.53;3.23;;;;;;;15.93;74.54;101496.78;5059234;28;20201;-81
2023/10/01 06:58:00;;;;;;;5.97;3.67;;;;;;;15.92;75.81;101495.06;5064157;28;20202;-82
2023/10/01 07:00:33;;;;;;;3.93;3.07;;;;;;;15.94;75.13;101482.72;5064566;28;20228;-80
2023/10/01 07:03:16;;;;;;;3.70;3.40;;;;;;;15.91;74.30;101508.25;5065870;28;20226;-83
2023/10/01 07:05:45;;;;;;;4.37;3.27;;;;;;;16.02;74.47;101525.53;5065496;28;20197;-81
2023/10/01 07:08:12;;;;;;;4.30;3.50;;;;;;;16.06;73.86;101543.00;5064612;28;20212;-83
2023/10/01 07:10:39;;;;;;;4.33;2.70;;;;;;;16.22;74.93;101522.41;5058217;28;20221;-82
2023/10/01 07:13:05;;;;;;;3.23;2.93;;;;;;;16.36;74.46;101524.69;5043867;28;20252;-83
2023/10/01 07:15:39;;;;;;;4.03;3.47;;;;;;;16.28;73.89;101543.31;5057848;28;20214;-82
2023/10/01 07:18:15;;;;;;;4.00;3.33;;;;;;;16.40;74.27;101536.88;5055353;28;20215;-80
2023/10/01 07:20:44;;;;;;;4.00;3.13;;;;;;;16.48;73.92;101553.38;5061400;28;20233;-78
2023/10/01 07:23:12;;;;;;;3.50;3.17;;;;;;;16.55;73.83;101550.56;5054463;28;20260;-82
2023/10/01 07:25:39;;;;;;;3.87;3.10;;;;;;;16.54;73.14;101562.88;5064248;28;20206;-82
2023/10/01 07:28:06;;;;;;;3.33;3.00;;;;;;;16.35;73.40;101567.78;5064909;28;20680;-81
2023/10/01 07:30:45;;;;;;;4.47;3.47;;;;;;;16.50;74.21;101550.69;5065221;28;20221;-81
2023/10/01 07:33:11;;;;;;;4.47;3.30;;;;;;;16.54;73.58;101560.25;5069154;28;20211;-83
2023/10/01 07:35:41;;;;;;;4.20;3.07;;;;;;;16.63;73.00;101561.78;5045877;28;20204;-82
2023/10/01 07:38:08;;;;;;;4.23;3.10;;;;;;;16.67;73.47;101568.72;5067696;28;20198;-84
2023/10/01 07:40:52;;;;;;;5.87;3.40;;;;;;;16.68;72.85;101578.34;5065030;28;20248;-81
2023/10/01 07:43:21;;;;;;;3.83;2.87;;;;;;;16.66;72.87;101591.56;5060309;28;20218;-82
2023/10/01 07:45:55;;;;;;;5.10;2.93;;;;;;;16.71;72.78;101585.31;5066808;28;20212;-82
2023/10/01 07:48:23;;;;;;;3.50;3.10;;;;;;;16.68;73.01;101587.13;5058749;28;20224;-83
2023/10/01 07:50:51;;;;;;;3.83;3.00;;;;;;;16.73;72.97;101581.75;5067146;28;20317;-82
2023/10/01 07:53:18;;;;;;;4.80;3.40;;;;;;;16.74;73.01;101585.25;5059823;28;20497;-81
2023/10/01 07:55:46;;;;;;;3.57;3.27;;;;;;;16.55;72.27;101608.56;5067074;28;20228;-81
2023/10/01 07:58:44;;;;;;;5.63;3.80;;;;;;;16.58;72.58;101606.72;5051043;28;20240;-81
2023/10/01 08:03:57;;;;;;;3.83;2.93;;;;;;;16.75;73.16;101605.41;5068584;28;20221;-82
2023/10/01 08:06:29;;;;;;;5.37;3.53;;;;;;;16.75;72.48;101616.84;5067352;28;20234;-80
2023/10/01 08:08:58;;;;;;;3.07;2.77;;;;;;;16.80;72.41;101599.13;5049954;28;20321;-82
2023/10/01 08:14:09;;;;;;;4.10;3.10;;;;;;;16.95;71.34;101624.28;5067347;28;20239;-82
2023/10/01 08:16:47;;;;;;;3.77;2.90;;;;;;;16.96;71.83;101627.75;5057545;28;20207;-82
2023/10/01 08:19:14;;;;;;;4.03;2.97;;;;;;;16.90;71.72;101630.56;5070107;28;20232;-83
2023/10/01 08:21:48;;;;;;;4.87;2.93;;;;;;;16.96;71.06;101640.94;5069442;28;20232;-83
2023/10/01 08:24:18;;;;;;;2.93;2.67;;;;;;;16.86;72.04;101640.31;5068741;28;20228;-84
2023/10/01 08:26:49;;;;;;;3.80;3.37;;;;;;;16.85;71.40;101649.16;5069084;28;20194;-81
2023/10/01 08:29:16;;;;;;;3.40;3.10;;;;;;;16.93;71.79;101630.50;5069916;28;20222;-83
2023/10/01 08:34:27;;;;;;;4.60;3.27;;;;;;;17.03;71.57;101639.91;5060720;28;20203;-82
2023/10/01 08:36:55;;;;;;;3.73;3.20;;;;;;;17.03;71.63;101632.84;5069306;28;20210;-81
2023/10/01 08:39:33;;;;;;;4.10;3.07;;;;;;;17.11;72.36;101635.28;5057875;28;20226;-79
2023/10/01 08:42:08;;;;;;;3.87;3.10;;;;;;;17.01;71.92;101637.28;5050487;28;20238;-82
2023/10/01 08:44:44;;;;;;;4.83;3.23;;;;;;;17.11;71.42;101639.69;5069946;28;20294;-81
2023/10/01 08:47:28;;;;;;;5.10;2.77;;;;;;;17.14;71.86;101629.91;5067957;28;20209;-83
2023/10/01 08:50:15;;;;;;;3.30;3.00;;;;;;;16.96;71.33;101641.81;5067079;28;20249;-83
2023/10/01 08:52:52;;;;;;;3.80;3.10;;;;;;;17.15;71.82;101643.97;5068380;28;20206;-84
2023/10/01 08:55:22;;;;;;;3.83;3.00;;;;;;;17.16;72.16;101651.81;5067625;28;20284;-84
2023/10/01 08:57:52;;;;;;;3.63;3.03;;;;;;;17.28;72.22;101637.44;5068400;28;20210;-85
2023/10/01 09:00:20;;;;;;;7.73;2.90;;;;;;;17.37;71.59;101653.03;5068083;28;20237;-84
2023/10/01 09:02:53;;;;;;;4.03;3.20;;;;;;;17.36;71.65;101653.94;5068244;28;20209;-84
2023/10/01 09:05:24;;;;;;;3.43;3.03;;;;;;;17.34;70.50;101661.00;5067847;28;20229;-84
2023/10/01 09:08:14;;;;;;;5.27;3.17;;;;;;;17.44;70.80;101670.44;5067958;28;20201;-85
2023/10/01 09:10:49;;;;;;;3.30;3.00;;;;;;;17.56;70.82;101670.97;5068218;28;20227;-85
2023/10/01 09:13:20;;;;;;;6.97;3.33;;;;;;;17.31;70.22;101684.88;5068951;28;20209;-84
2023/10/01 09:15:53;;;;;;;4.20;3.00;;;;;;;17.40;69.88;101707.50;5061845;28;20206;-85
2023/10/01 09:18:23;;;;;;;4.80;3.10;;;;;;;17.32;70.01;101709.47;5077080;28;20273;-85
2023/10/01 09:21:06;;;;;;;5.73;3.33;;;;;;;17.31;70.14;101705.13;4367933;28;10000724;-85
2023/10/01 09:24:11;;;;;;;3.60;3.23;;;;;;;17.44;71.35;101685.38;5066302;28;20252;-84
2023/10/01 09:26:39;;;;;;;7.77;3.37;;;;;;;17.44;70.96;101691.56;5073582;28;20213;-84
2023/10/01 09:29:13;;;;;;;4.43;2.90;;;;;;;17.52;70.97;101682.53;5075867;28;20213;-84
2023/10/01 09:31:52;;;;;;;4.17;2.90;;;;;;;17.50;70.38;101685.22;5063083;28;20199;-81
2023/10/01 09:34:31;;;;;;;3.83;3.43;;;;;;;17.69;70.60;101677.66;5057873;28;20301;-80
2023/10/01 09:37:01;;;;;;;3.87;3.23;;;;;;;17.50;70.75;101668.50;5067365;28;20175;-82
2023/10/01 09:39:38;;;;;;;4.10;3.50;;;;;;;17.55;70.31;101683.31;5055753;28;20224;-81
2023/10/01 09:42:22;;;;;;;5.37;2.83;;;;;;;17.84;71.45;101652.63;5062267;28;20212;-83
2023/10/01 09:44:50;;;;;;;4.17;3.30;;;;;;;17.83;69.61;101667.56;5056205;28;20233;-83
2023/10/01 09:47:18;;;;;;;4.17;2.73;;;;;;;17.95;69.57;101691.91;5041555;28;20220;-83
2023/10/01 09:49:47;;;;;;;4.03;3.30;;;;;;;18.16;69.96;101691.28;5042630;28;20229;-84
2023/10/01 09:52:26;;;;;;;4.63;3.30;;;;;;;18.05;69.03;101711.84;5046393;28;20203;-84
2023/10/01 09:55:00;;;;;;;7.10;3.10;;;;;;;18.24;68.93;101735.97;5063687;28;20702;-82
2023/10/01 09:57:27;;;;;;;4.77;3.63;;;;;;;18.25;67.51;101770.28;5064131;28;20210;-81
2023/10/01 10:00:14;;;;;;;5.33;3.30;;;;;;;18.30;67.61;101780.72;5063693;28;20239;-83
2023/10/01 10:02:51;;;;;;;4.47;3.50;;;;;;;18.44;68.24;101764.44;5054946;28;20234;-84
2023/10/01 10:05:24;;;;;;;5.40;3.33;;;;;;;18.33;67.15;101791.19;5060884;28;20211;-82
2023/10/01 10:07:52;;;;;;;4.10;3.23;;;;;;;18.46;68.29;101768.75;5062330;28;20685;-81
2023/10/01 10:10:24;;;;;;;5.50;3.63;;;;;;;18.54;68.24;101759.75;5061691;28;20287;-82
2023/10/01 10:12:53;;;;;;;7.10;3.40;;;;;;;18.57;67.45;101765.81;5062347;28;20230;-83
2023/10/01 10:15:57;;;;;;;5.43;3.47;;;;;;;18.58;67.96;101775.44;5061740;28;20227;-81
2023/10/01 10:18:25;;;;;;;3.67;3.17;;;;;;;18.54;68.13;101760.59;5061928;28;20242;-82
2023/10/01 10:20:59;;;;;;;4.33;3.20;;;;;;;18.69;68.07;101748.69;5063327;28;20234;-82
2023/10/01 10:23:30;;;;;;;5.53;3.10;;;;;;;18.87;68.27;101738.44;5062913;28;20285;-83
2023/10/01 10:26:13;;;;;;;6.30;3.67;;;;;;;18.85;68.02;101726.13;5063946;28;20757;-82
2023/10/01 10:28:53;;;;;;;5.73;3.73;;;;;;;18.89;67.51;101745.44;5064806;28;20222;-82
2023/10/01 10:31:33;;;;;;;6.00;3.50;;;;;;;18.96;67.41;101744.28;5052576;28;20274;-80
2023/10/01 10:34:25;;;;;;;4.30;3.43;;;;;;;19.01;67.79;101744.16;5043438;28;20212;-82
2023/10/01 10:36:58;;;;;;;6.70;3.57;;;;;;;18.98;67.84;101723.94;5043360;28;20625;-82
2023/10/01 10:40:26;;;;;;;6.53;3.33;;;;;;;19.12;68.51;101718.16;5042911;28;20272;-83
2023/10/01 10:43:17;;;;;;;5.83;3.73;;;;;;;18.91;68.24;101717.13;5042399;28;20205;-82
2023/10/01 10:45:58;;;;;;;4.73;3.67;;;;;;;18.89;67.72;101724.25;5056012;28;20322;-82
2023/10/01 10:49:02;;;;;;;5.40;3.30;;;;;;;18.84;67.87;101731.47;5060069;28;20898;-83
2023/10/01 10:51:47;;;;;;;5.07;3.77;;;;;;;18.88;68.12;101719.00;5042411;28;20199;-83
2023/10/01 10:54:29;;;;;;;5.37;3.90;;;;;;;19.07;68.89;101712.19;5040901;28;20213;-83
2023/10/01 10:56:57;;;;;;;8.03;4.17;;;;;;;19.04;68.18;101714.94;5042397;28;20205;-83
2023/10/01 10:59:25;;;;;;;5.67;3.73;;;;;;;19.15;69.03;101690.75;5044239;28;20229;-81
2023/10/01 11:01:56;;;;;;;5.00;3.60;;;;;;;19.23;68.92;101678.13;5044668;28;20213;-82
2023/10/01 11:04:30;;;;;;;5.83;4.17;;;;;;;19.29;68.44;101693.78;5043259;28;20317;-82
2023/10/01 11:07:02;;;;;;;7.03;4.40;;;;;;;19.02;68.00;101700.88;5043990;28;20648;-82
2023/10/01 11:09:32;;;;;;;5.83;4.07;;;;;;;19.17;68.23;101696.84;5046441;28;20817;-83
2023/10/01 11:12:05;;;;;;;4.93;3.70;;;;;;;19.47;68.61;101683.44;5064192;28;20204;-81
2023/10/01 11:14:31;;;;;;;7.73;4.13;;;;;;;19.40;67.48;101688.09;5062472;28;20268;-82
2023/10/01 11:16:58;;;;;;;4.87;3.80;;;;;;;19.41;67.84;101719.81;5065697;28;20210;-81
2023/10/01 11:19:27;;;;;;;5.20;3.87;;;;;;;19.47;67.87;101708.16;5064900;28;20237;-84
2023/10/01 11:22:01;;;;;;;7.60;4.43;;;;;;;19.42;67.69;101705.66;5059852;28;20236;-82
2023/10/01 11:24:31;;;;;;;7.60;4.60;;;;;;;19.47;68.35;101700.19;5045578;28;20224;-82
2023/10/01 11:27:22;;;;;;;6.63;4.63;;;;;;;19.58;67.59;101705.09;5052423;28;20299;-82
2023/10/01 11:30:13;;;;;;;7.23;4.20;;;;;;;19.79;67.50;101725.53;5059836;28;20232;-82
2023/10/01 11:35:35;;;;;;;6.67;4.33;;;;;;;19.98;66.42;101741.63;5064319;28;20220;-81
2023/10/01 11:38:08;;;;;;;5.60;4.70;;;;;;;20.18;67.22;101724.13;5049695;28;20236;-81
2023/10/01 11:43:33;;;;;;;5.97;4.40;;;;;;;20.31;67.09;101706.78;5046660;28;20223;-81
2023/10/01 11:46:19;;;;;;;5.97;4.83;;;;;;;20.32;66.72;101708.53;5065805;28;20933;-81
2023/10/01 11:49:03;;;;;;;7.73;4.93;;;;;;;20.25;66.17;101733.53;5065275;28;20629;-81
2023/10/01 11:51:43;;;;;;;5.33;4.33;;;;;;;20.14;66.50;101717.19;5065176;28;20235;-82
2023/10/01 11:54:11;;;;;;;5.13;4.50;;;;;;;20.14;67.05;101706.59;5064993;28;20212;-82
2023/10/01 11:56:41;;;;;;;6.23;4.70;;;;;;;20.20;66.98;101699.25;5053504;28;20210;-83
2023/10/01 11:59:10;;;;;;;5.80;4.20;;;;;;;20.26;66.93;101697.28;5045179;28;20205;-84
2023/10/01 12:01:47;;;;;;;5.50;4.47;;;;;;;20.13;67.46;101663.28;5048859;28;20209;-81
2023/10/01 12:04:21;;;;;;;6.43;4.70;;;;;;;20.28;67.67;101658.28;5064709;28;20240;-82